createdAt,value
2023-01-28T00:01:58.118Z,2.20
2023-01-28T00:04:25.684Z,2.00
2023-01-28T00:06:54.601Z,2.27
2023-01-28T00:09:22.177Z,2.27
2023-01-28T00:11:49.509Z,2.20
2023-01-28T00:14:17.134Z,1.93
2023-01-28T00:16:44.548Z,2.10
2023-01-28T00:19:11.880Z,2.27
2023-01-28T00:21:39.245Z,2.20
2023-01-28T00:24:09.553Z,2.20
2023-01-28T00:26:37.186Z,2.00
2023-01-28T00:29:04.670Z,2.03
2023-01-28T00:31:32.135Z,2.13
2023-01-28T00:33:59.519Z,2.80
2023-01-28T00:36:27.740Z,2.10
2023-01-28T00:38:55.900Z,1.93
2023-01-28T00:41:25.696Z,2.20
2023-01-28T00:43:53.738Z,1.73
2023-01-28T00:46:21.707Z,1.80
2023-01-28T00:48:49.243Z,1.60
2023-01-28T00:51:17.366Z,1.90
2023-01-28T00:53:44.780Z,1.70
2023-01-28T00:56:13.815Z,2.13
2023-01-28T00:58:42.792Z,1.63
2023-01-28T01:01:11.183Z,2.13
2023-01-28T01:03:38.856Z,1.80
2023-01-28T01:06:06.591Z,1.50
2023-01-28T01:08:35.879Z,1.53
2023-01-28T01:11:03.709Z,1.70
2023-01-28T01:13:32.675Z,1.50
2023-01-28T01:16:05.972Z,1.80
2023-01-28T01:18:34.041Z,1.67
2023-01-28T01:21:01.412Z,1.80
2023-01-28T01:23:29.472Z,1.50
2023-01-28T01:25:56.792Z,1.80
2023-01-28T01:28:24.651Z,1.50
2023-01-28T01:30:52.971Z,1.37
2023-01-28T01:33:21.726Z,1.57
2023-01-28T01:35:54.219Z,1.37
2023-01-28T01:38:21.743Z,1.40
2023-01-28T01:40:49.066Z,1.37
2023-01-28T01:43:17.510Z,1.40
2023-01-28T01:45:45.680Z,1.60
2023-01-28T01:48:16.393Z,1.50
2023-01-28T01:50:48.592Z,1.23
2023-01-28T01:53:17.793Z,1.70
2023-01-28T01:55:47.428Z,1.47
2023-01-28T01:58:16.731Z,1.60
2023-01-28T02:00:44.155Z,1.90
2023-01-28T02:03:11.925Z,1.60
2023-01-28T02:05:40.067Z,1.50
2023-01-28T02:08:25.598Z,1.60
2023-01-28T02:10:54.269Z,1.73
2023-01-28T02:13:22.906Z,1.70
2023-01-28T02:15:50.439Z,1.70
2023-01-28T02:18:17.935Z,1.60
2023-01-28T02:20:56.924Z,1.63
2023-01-28T02:23:32.600Z,1.60
2023-01-28T02:26:17.674Z,1.60
2023-01-28T02:28:50.363Z,1.53
2023-01-28T02:31:20.520Z,1.27
2023-01-28T02:33:52.172Z,1.60
2023-01-28T02:36:23.421Z,1.53
2023-01-28T02:38:51.304Z,2.00
2023-01-28T02:41:21.890Z,1.97
2023-01-28T02:43:50.713Z,1.73
2023-01-28T02:46:40.511Z,1.63
2023-01-28T02:49:09.757Z,1.60
2023-01-28T02:51:44.395Z,1.40
2023-01-28T02:54:12.441Z,1.80
2023-01-28T02:56:44.261Z,1.73
2023-01-28T02:59:34.180Z,1.80
2023-01-28T03:02:05.244Z,1.70
2023-01-28T03:04:34.695Z,1.60
2023-01-28T03:07:04.592Z,2.10
2023-01-28T03:09:31.202Z,1.60
2023-01-28T03:12:17.523Z,1.60
2023-01-28T03:15:04.483Z,1.93
2023-01-28T03:17:52.289Z,1.70
2023-01-28T03:20:38.761Z,2.00
2023-01-28T03:23:27.481Z,1.77
2023-01-28T03:26:13.337Z,1.70
2023-01-28T03:28:58.314Z,1.80
2023-01-28T03:31:45.061Z,1.73
2023-01-28T03:34:30.286Z,2.20
2023-01-28T03:36:58.052Z,2.37
2023-01-28T03:39:27.081Z,2.10
2023-01-28T03:41:58.642Z,2.00
2023-01-28T03:44:44.225Z,2.00
2023-01-28T03:47:13.214Z,2.00
2023-01-28T03:49:41.430Z,2.30
2023-01-28T03:52:08.956Z,2.67
2023-01-28T03:54:36.436Z,2.63
2023-01-28T03:57:04.064Z,2.17
2023-01-28T03:59:31.383Z,2.13
2023-01-28T04:01:58.912Z,2.50
2023-01-28T04:04:28.129Z,2.20
2023-01-28T04:06:56.243Z,2.20
2023-01-28T04:09:23.574Z,2.10
2023-01-28T04:11:51.596Z,2.07
2023-01-28T04:14:18.972Z,2.10
2023-01-28T04:16:46.328Z,1.90
2023-01-28T04:19:13.804Z,1.93
2023-01-28T04:21:42.729Z,2.20
2023-01-28T04:24:10.252Z,2.07
2023-01-28T04:26:37.620Z,1.97
2023-01-28T04:29:05.062Z,2.37
2023-01-28T04:31:32.460Z,2.10
2023-01-28T04:33:59.869Z,2.03
2023-01-28T04:36:27.577Z,2.20
2023-01-28T04:38:56.539Z,1.90
2023-01-28T04:41:23.937Z,1.73
2023-01-28T04:43:51.478Z,2.10
2023-01-28T04:46:18.826Z,2.30
2023-01-28T04:48:46.404Z,1.93
2023-01-28T04:51:13.733Z,1.73
2023-01-28T04:53:41.100Z,1.97
2023-01-28T04:56:09.874Z,2.17
2023-01-28T04:58:37.456Z,2.40
2023-01-28T05:01:04.941Z,2.20
2023-01-28T05:03:34.109Z,2.13
2023-01-28T05:06:02.874Z,2.27
2023-01-28T05:08:30.185Z,2.30
2023-01-28T05:10:57.557Z,2.60
2023-01-28T05:13:26.241Z,2.57
2023-01-28T05:15:53.891Z,2.80
2023-01-28T05:18:21.333Z,2.83
2023-01-28T05:20:48.690Z,2.70
2023-01-28T05:23:16.336Z,2.40
2023-01-28T05:25:43.682Z,2.80
2023-01-28T05:28:11.238Z,2.70
2023-01-28T05:30:40.178Z,2.80
2023-01-28T05:33:07.563Z,2.83
2023-01-28T05:35:36.360Z,2.50
2023-01-28T05:38:04.089Z,2.57
2023-01-28T05:40:31.437Z,2.87
2023-01-28T05:42:58.819Z,2.33
2023-01-28T05:45:26.213Z,2.43
2023-01-28T05:47:54.910Z,3.00
2023-01-28T05:50:22.378Z,2.70
2023-01-28T05:52:49.766Z,2.40
2023-01-28T05:55:19.769Z,2.73
2023-01-28T05:57:48.845Z,2.67
2023-01-28T06:00:17.190Z,2.63
2023-01-28T06:02:44.958Z,2.80
2023-01-28T06:05:13.718Z,2.70
2023-01-28T06:07:41.062Z,2.83
2023-01-28T06:10:09.008Z,2.57
2023-01-28T06:12:36.321Z,2.70
2023-01-28T06:15:03.784Z,2.50
2023-01-28T06:17:31.133Z,2.47
2023-01-28T06:19:58.550Z,2.73
2023-01-28T06:22:27.353Z,2.47
2023-01-28T06:24:54.772Z,3.20
2023-01-28T06:27:22.127Z,2.50
2023-01-28T06:29:49.636Z,2.33
2023-01-28T06:32:17.260Z,2.40
2023-01-28T06:34:44.707Z,2.50
2023-01-28T06:37:13.598Z,2.30
2023-01-28T06:39:42.395Z,2.20
2023-01-28T06:42:09.913Z,2.50
2023-01-28T06:44:37.319Z,2.40
2023-01-28T06:47:04.887Z,2.40
2023-01-28T06:49:32.423Z,2.20
2023-01-28T06:51:59.842Z,2.10
2023-01-28T06:54:27.223Z,2.07
2023-01-28T06:56:56.026Z,2.00
2023-01-28T06:59:23.412Z,2.10
2023-01-28T07:01:51.026Z,2.03
2023-01-28T07:04:18.571Z,2.27
2023-01-28T07:06:46.321Z,2.43
2023-01-28T07:09:13.951Z,2.77
2023-01-28T07:11:41.859Z,2.00
2023-01-28T07:14:10.743Z,1.60
2023-01-28T07:16:38.273Z,1.80
2023-01-28T07:19:05.651Z,1.93
2023-01-28T07:21:33.024Z,1.97
2023-01-28T07:24:00.428Z,1.80
2023-01-28T07:26:28.242Z,1.60
2023-01-28T07:28:55.843Z,1.80
2023-01-28T07:31:24.623Z,1.90
2023-01-28T07:33:52.135Z,1.60
2023-01-28T07:36:19.656Z,1.57
2023-01-28T07:38:47.167Z,1.40
2023-01-28T07:41:14.587Z,1.37
2023-01-28T07:43:42.039Z,1.40
2023-01-28T07:46:09.442Z,1.40
2023-01-28T07:48:38.448Z,1.00
2023-01-28T07:51:05.997Z,1.47
2023-01-28T07:53:33.593Z,1.43
2023-01-28T07:56:01.995Z,1.17
2023-01-28T07:58:29.653Z,1.30
2023-01-28T08:00:57.655Z,1.10
2023-01-28T08:03:25.063Z,1.30
2023-01-28T08:05:54.989Z,1.40
2023-01-28T08:08:22.549Z,1.07
2023-01-28T08:10:50.108Z,1.40
2023-01-28T08:13:18.343Z,1.00
2023-01-28T08:15:46.029Z,1.10
2023-01-28T08:18:14.719Z,1.10
2023-01-28T08:20:43.577Z,1.10
2023-01-28T08:23:13.596Z,1.03
2023-01-28T08:25:40.979Z,1.20
2023-01-28T08:28:08.664Z,1.30
2023-01-28T08:30:38.059Z,1.30
2023-01-28T08:33:06.019Z,1.40
2023-01-28T08:35:33.667Z,1.00
2023-01-28T08:38:01.564Z,1.33
2023-01-28T08:40:30.770Z,1.10
2023-01-28T08:42:58.131Z,1.10
2023-01-28T08:45:27.936Z,1.00
2023-01-28T08:47:56.931Z,1.03
2023-01-28T08:50:25.891Z,1.00
2023-01-28T08:52:56.359Z,1.00
2023-01-28T08:55:23.703Z,1.20
2023-01-28T08:57:52.667Z,0.80
2023-01-28T09:00:20.371Z,1.20
2023-01-28T09:02:48.007Z,1.00
2023-01-28T09:05:15.995Z,0.90
2023-01-28T09:07:44.381Z,1.00
2023-01-28T09:10:12.102Z,1.13
2023-01-28T09:12:39.462Z,0.90
2023-01-28T09:15:09.254Z,1.00
2023-01-28T09:17:36.591Z,1.10
2023-01-28T09:20:04.549Z,1.03
2023-01-28T09:22:31.975Z,1.10
2023-01-28T09:24:59.356Z,1.00
2023-01-28T09:27:26.753Z,0.90
2023-01-28T09:29:54.085Z,1.07
2023-01-28T09:32:24.386Z,1.10
2023-01-28T09:34:51.805Z,1.10
2023-01-28T09:37:19.144Z,1.00
2023-01-28T09:39:46.488Z,0.90
2023-01-28T09:42:31.772Z,0.93
2023-01-28T09:45:03.880Z,0.80
2023-01-28T09:47:35.012Z,0.90
2023-01-28T09:50:04.168Z,0.93
2023-01-28T09:52:33.286Z,1.07
2023-01-28T09:55:03.265Z,0.83
2023-01-28T09:57:32.488Z,0.87
2023-01-28T10:00:00.050Z,1.00
2023-01-28T10:02:34.684Z,0.80
2023-01-28T10:05:13.890Z,0.80
2023-01-28T10:07:43.896Z,1.20
2023-01-28T10:10:13.917Z,0.90
2023-01-28T10:12:48.217Z,1.13
2023-01-28T10:15:23.606Z,1.70
2023-01-28T10:17:52.662Z,1.07
2023-01-28T10:20:27.008Z,1.30
2023-01-28T10:22:57.162Z,1.20
2023-01-28T10:25:26.112Z,1.20
2023-01-28T10:27:53.667Z,1.20
2023-01-28T10:30:22.062Z,0.90
2023-01-28T10:32:52.469Z,1.27
2023-01-28T10:35:19.843Z,1.30
2023-01-28T10:37:48.887Z,1.50
2023-01-28T10:40:17.674Z,0.80
2023-01-28T10:42:45.813Z,0.80
2023-01-28T10:45:17.335Z,0.80
2023-01-28T10:47:45.341Z,1.00
2023-01-28T10:50:18.273Z,2.10
2023-01-28T10:52:54.948Z,1.40
2023-01-28T10:55:22.519Z,1.10
2023-01-28T10:57:50.282Z,1.50
2023-01-28T11:00:24.326Z,1.10
2023-01-28T11:02:51.829Z,1.20
2023-01-28T11:05:21.032Z,2.63
2023-01-28T11:07:50.065Z,2.00
2023-01-28T11:10:27.832Z,5.67
2023-01-28T11:12:59.604Z,1.80
2023-01-28T11:15:27.286Z,2.10
2023-01-28T11:17:57.048Z,2.00
2023-01-28T11:20:25.750Z,2.00
2023-01-28T11:22:53.807Z,2.10
2023-01-28T11:25:27.052Z,1.80
2023-01-28T11:27:56.061Z,3.33
2023-01-28T11:30:24.931Z,3.60
2023-01-28T11:33:00.305Z,1.93
2023-01-28T11:35:30.307Z,1.97
2023-01-28T11:37:59.533Z,1.90
2023-01-28T11:40:27.235Z,2.10
2023-01-28T11:42:58.223Z,1.80
2023-01-28T11:45:31.453Z,2.33
2023-01-28T11:48:06.475Z,2.20
2023-01-28T11:50:40.843Z,3.40
2023-01-28T11:53:17.071Z,4.30
2023-01-28T11:55:48.707Z,3.83
2023-01-28T11:58:24.158Z,5.20
2023-01-28T12:01:00.127Z,3.40
2023-01-28T12:03:35.312Z,2.83
2023-01-28T12:06:12.471Z,3.00
2023-01-28T12:08:46.331Z,4.90
2023-01-28T12:11:42.023Z,2.57
2023-01-28T12:14:17.534Z,2.70
2023-01-28T12:16:53.905Z,3.10
2023-01-28T12:19:34.457Z,3.00
2023-01-28T12:22:11.309Z,2.50
2023-01-28T12:24:46.655Z,3.07
2023-01-28T12:27:24.577Z,2.80
2023-01-28T12:29:59.793Z,2.40
2023-01-28T12:32:39.099Z,3.00
2023-01-28T12:35:22.104Z,2.30
2023-01-28T12:37:58.084Z,2.10
2023-01-28T12:40:35.698Z,2.43
2023-01-28T12:43:04.540Z,2.50
2023-01-28T12:45:37.551Z,2.30
2023-01-28T12:48:12.321Z,2.97
2023-01-28T12:50:42.592Z,2.33
2023-01-28T12:53:14.617Z,2.90
2023-01-28T12:55:45.097Z,2.83
2023-01-28T12:58:14.975Z,1.80
2023-01-28T13:00:46.834Z,2.13
2023-01-28T13:03:18.219Z,2.07
2023-01-28T13:05:47.345Z,2.70
2023-01-28T13:08:16.806Z,2.57
2023-01-28T13:10:45.246Z,2.03
2023-01-28T13:13:16.823Z,2.30
2023-01-28T13:15:47.210Z,1.97
2023-01-28T13:18:31.324Z,2.00
2023-01-28T13:20:59.094Z,1.90
2023-01-28T13:23:27.184Z,2.33
2023-01-28T13:25:55.666Z,2.37
2023-01-28T13:28:27.126Z,2.40
2023-01-28T13:31:01.988Z,2.00
2023-01-28T13:33:31.678Z,1.97
2023-01-28T13:35:59.569Z,1.97
2023-01-28T13:38:27.044Z,1.93
2023-01-28T13:40:55.837Z,1.53
2023-01-28T13:43:27.941Z,2.10
2023-01-28T13:46:01.396Z,2.10
2023-01-28T13:48:32.434Z,1.90
2023-01-28T13:51:00.451Z,1.70
2023-01-28T13:53:33.476Z,1.63
2023-01-28T13:56:09.067Z,1.73
2023-01-28T13:58:49.093Z,1.60
2023-01-28T14:01:34.314Z,1.67
2023-01-28T14:04:24.405Z,1.50
2023-01-28T14:07:09.604Z,3.00
2023-01-28T14:09:50.348Z,1.70
2023-01-28T14:12:32.720Z,3.20
2023-01-28T14:15:12.266Z,1.73
2023-01-28T14:17:43.778Z,2.47
2023-01-28T14:20:17.542Z,3.63
2023-01-28T14:22:45.211Z,4.40
2023-01-28T14:25:20.997Z,2.87
2023-01-28T14:27:50.467Z,2.30
2023-01-28T14:30:21.711Z,2.23
2023-01-28T14:32:50.586Z,3.13
2023-01-28T14:35:21.860Z,2.17
2023-01-28T14:37:49.220Z,4.10
2023-01-28T14:40:17.766Z,3.30
2023-01-28T14:42:47.151Z,2.60
2023-01-28T14:45:20.699Z,2.27
2023-01-28T14:47:53.846Z,2.50
2023-01-28T14:50:31.886Z,2.17
2023-01-28T14:53:23.655Z,1.80
2023-01-28T14:55:54.139Z,2.40
2023-01-28T14:58:24.224Z,2.93
2023-01-28T15:00:54.884Z,2.20
2023-01-28T15:03:25.311Z,2.30
2023-01-28T15:06:03.837Z,2.20
2023-01-28T15:08:32.369Z,2.10
2023-01-28T15:11:01.013Z,2.60
2023-01-28T15:13:29.594Z,2.30
2023-01-28T15:15:58.245Z,3.70
2023-01-28T15:18:30.056Z,2.63
2023-01-28T15:20:58.660Z,3.10
2023-01-28T15:23:28.807Z,3.20
2023-01-28T15:25:56.630Z,2.00
2023-01-28T15:28:27.315Z,2.57
2023-01-28T15:30:54.820Z,2.80
2023-01-28T15:33:23.141Z,4.03
2023-01-28T15:35:51.355Z,3.13
2023-01-28T15:38:18.871Z,2.53
2023-01-28T15:40:49.132Z,2.87
2023-01-28T15:43:18.565Z,2.73
2023-01-28T15:45:47.956Z,4.10
2023-01-28T15:48:15.891Z,3.53
2023-01-28T15:50:44.907Z,4.40
2023-01-28T15:53:14.176Z,3.83
2023-01-28T15:55:42.645Z,6.93
2023-01-28T15:58:21.861Z,7.77
2023-01-28T16:00:50.402Z,6.50
2023-01-28T16:03:19.404Z,3.30
2023-01-28T16:05:55.789Z,4.10
2023-01-28T16:08:26.850Z,2.90
2023-01-28T16:10:55.085Z,3.30
2023-01-28T16:13:24.609Z,3.80
2023-01-28T16:15:53.069Z,3.17
2023-01-28T16:18:27.015Z,3.30
2023-01-28T16:20:54.777Z,3.00
2023-01-28T16:23:23.533Z,4.13
2023-01-28T16:25:59.711Z,3.90
2023-01-28T16:28:30.112Z,3.70
2023-01-28T16:30:58.823Z,3.90
2023-01-28T16:33:26.548Z,3.77
2023-01-28T16:36:07.664Z,3.97
2023-01-28T16:38:35.513Z,4.00
2023-01-28T16:41:02.917Z,4.17
2023-01-28T16:43:31.644Z,3.80
2023-01-28T16:45:58.997Z,3.70
2023-01-28T16:48:26.491Z,4.30
2023-01-28T16:50:53.843Z,6.90
2023-01-28T16:53:23.910Z,4.83
2023-01-28T16:55:51.675Z,4.97
2023-01-28T16:58:22.845Z,5.07
2023-01-28T17:00:51.732Z,5.97
2023-01-28T17:03:19.764Z,6.87
2023-01-28T17:05:47.221Z,9.70
2023-01-28T17:08:14.555Z,9.10
2023-01-28T17:10:41.929Z,5.47
2023-01-28T17:13:09.280Z,5.13
2023-01-28T17:15:36.911Z,5.97
2023-01-28T17:18:05.807Z,6.70
2023-01-28T17:20:37.293Z,7.70
2023-01-28T17:23:07.264Z,9.13
2023-01-28T17:25:37.493Z,6.70
2023-01-28T17:28:05.103Z,6.30
2023-01-28T17:30:32.477Z,6.93
2023-01-28T17:33:00.020Z,7.20
2023-01-28T17:35:28.739Z,7.43
2023-01-28T17:37:56.372Z,7.23
2023-01-28T17:40:24.361Z,7.73
2023-01-28T17:42:51.698Z,7.37
2023-01-28T17:45:19.062Z,8.10
2023-01-28T17:47:46.390Z,7.43
2023-01-28T17:50:13.725Z,5.87
2023-01-28T17:52:42.429Z,6.40
2023-01-28T17:55:10.361Z,7.30
2023-01-28T17:57:37.725Z,5.80
2023-01-28T18:00:05.491Z,6.00
2023-01-28T18:02:32.804Z,7.13
2023-01-28T18:05:00.154Z,6.83
2023-01-28T18:07:27.552Z,5.83
2023-01-28T18:09:56.256Z,7.37
2023-01-28T18:12:23.793Z,11.70
2023-01-28T18:14:51.164Z,8.30
2023-01-28T18:17:18.514Z,7.37
2023-01-28T18:19:46.485Z,7.83
2023-01-28T18:22:13.842Z,6.47
2023-01-28T18:24:41.287Z,6.80
2023-01-28T18:27:10.005Z,6.80
2023-01-28T18:29:37.392Z,8.43
2023-01-28T18:32:05.191Z,7.20
2023-01-28T18:34:32.677Z,7.70
2023-01-28T18:37:00.040Z,7.07
2023-01-28T18:39:30.144Z,6.40
2023-01-28T18:41:58.069Z,6.63
2023-01-28T18:44:27.773Z,6.20
2023-01-28T18:46:55.144Z,6.73
2023-01-28T18:49:22.497Z,7.60
2023-01-28T18:51:49.891Z,6.10
2023-01-28T18:54:17.589Z,6.07
2023-01-28T18:56:44.998Z,5.93
2023-01-28T18:59:13.332Z,8.30
2023-01-28T19:01:42.734Z,6.87
2023-01-28T19:04:10.650Z,6.70
2023-01-28T19:06:38.033Z,6.50
2023-01-28T19:09:07.238Z,7.17
2023-01-28T19:11:35.411Z,6.10
2023-01-28T19:14:03.055Z,6.70
2023-01-28T19:16:30.465Z,6.77
2023-01-28T19:19:00.131Z,6.93
2023-01-28T19:21:28.010Z,6.10
2023-01-28T19:23:56.970Z,6.60
2023-01-28T19:26:24.783Z,7.17
2023-01-28T19:28:52.543Z,6.73
2023-01-28T19:31:20.848Z,5.60
2023-01-28T19:33:48.365Z,6.83
2023-01-28T19:36:17.224Z,6.13
2023-01-28T19:38:45.037Z,5.93
2023-01-28T19:41:13.499Z,6.43
2023-01-28T19:43:40.845Z,7.53
2023-01-28T19:46:08.326Z,7.23
2023-01-28T19:48:35.846Z,6.97
2023-01-28T19:51:07.452Z,6.40
2023-01-28T19:53:36.342Z,6.70
2023-01-28T19:56:04.348Z,6.27
2023-01-28T19:58:34.121Z,6.50
2023-01-28T20:01:04.518Z,5.80
2023-01-28T20:03:31.909Z,6.60
2023-01-28T20:06:00.489Z,6.40
2023-01-28T20:08:27.898Z,6.23
2023-01-28T20:11:02.273Z,7.10
2023-01-28T20:13:31.118Z,5.97
2023-01-28T20:15:58.652Z,6.93
2023-01-28T20:18:26.537Z,7.13
2023-01-28T20:20:54.090Z,6.60
2023-01-28T20:23:21.436Z,6.93
2023-01-28T20:25:51.133Z,6.93
2023-01-28T20:28:19.903Z,7.47
2023-01-28T20:30:47.580Z,7.80
2023-01-28T20:33:15.143Z,7.93
2023-01-28T20:35:43.081Z,8.33
2023-01-28T20:38:10.443Z,6.83
2023-01-28T20:40:40.054Z,7.13
2023-01-28T20:43:08.761Z,6.63
2023-01-28T20:45:37.450Z,7.10
2023-01-28T20:48:05.064Z,5.57
2023-01-28T20:50:32.485Z,5.67
2023-01-28T20:52:59.867Z,5.80
2023-01-28T20:55:28.564Z,5.90
2023-01-28T20:57:56.184Z,6.27
2023-01-28T21:00:24.282Z,5.70
2023-01-28T21:02:53.025Z,6.27
2023-01-28T21:05:20.368Z,5.47
2023-01-28T21:07:47.734Z,5.47
2023-01-28T21:10:15.448Z,5.97
2023-01-28T21:12:42.956Z,6.13
2023-01-28T21:15:10.558Z,5.20
2023-01-28T21:17:37.915Z,5.50
2023-01-28T21:20:07.428Z,5.70
2023-01-28T21:22:34.778Z,5.50
2023-01-28T21:25:05.133Z,6.00
2023-01-28T21:27:35.628Z,6.77
2023-01-28T21:30:03.344Z,6.70
2023-01-28T21:32:31.269Z,6.00
2023-01-28T21:34:58.672Z,7.53
2023-01-28T21:37:27.557Z,6.83
2023-01-28T21:39:54.928Z,6.30
2023-01-28T21:42:22.329Z,7.17
2023-01-28T21:44:49.939Z,6.20
2023-01-28T21:47:17.580Z,7.47
2023-01-28T21:49:44.938Z,5.87
2023-01-28T21:52:13.092Z,7.30
2023-01-28T21:54:41.784Z,7.67
2023-01-28T21:57:09.141Z,7.60
2023-01-28T21:59:38.177Z,8.90
2023-01-28T22:02:06.904Z,7.50
2023-01-28T22:04:35.348Z,8.57
2023-01-28T22:07:03.182Z,10.13
2023-01-28T22:09:31.162Z,9.97
2023-01-28T22:11:59.976Z,8.97
2023-01-28T22:14:27.506Z,9.97
2023-01-28T22:16:55.108Z,10.63
2023-01-28T22:19:22.949Z,9.23
2023-01-28T22:21:50.315Z,10.60
2023-01-28T22:24:18.426Z,8.90
2023-01-28T22:26:46.391Z,10.37
2023-01-28T22:29:15.669Z,8.23
2023-01-28T22:31:43.083Z,8.37
2023-01-28T22:34:10.431Z,10.17
2023-01-28T22:36:37.800Z,9.57
2023-01-28T22:39:06.044Z,9.67
2023-01-28T22:41:33.419Z,9.30
2023-01-28T22:44:03.821Z,10.10
2023-01-28T22:46:33.521Z,9.13
2023-01-28T22:49:01.221Z,8.07
2023-01-28T22:51:30.104Z,9.60
2023-01-28T22:53:58.082Z,9.40
2023-01-28T22:56:26.791Z,8.47
2023-01-28T22:58:55.530Z,9.57
2023-01-28T23:01:23.282Z,9.10
2023-01-28T23:03:52.792Z,9.23
2023-01-28T23:06:21.273Z,8.20
2023-01-28T23:08:48.951Z,7.67
2023-01-28T23:11:24.967Z,9.37
2023-01-28T23:14:10.819Z,8.97
2023-01-28T23:16:55.730Z,9.83
2023-01-28T23:19:42.141Z,9.87
2023-01-28T23:22:30.910Z,10.13
2023-01-28T23:24:58.427Z,8.37
2023-01-28T23:27:25.744Z,9.83
2023-01-28T23:29:53.020Z,9.63
2023-01-28T23:32:21.333Z,10.60
2023-01-28T23:34:49.987Z,9.73
2023-01-28T23:37:17.656Z,10.37
2023-01-28T23:39:44.929Z,11.33
2023-01-28T23:42:13.615Z,11.23
2023-01-28T23:44:40.942Z,10.73
2023-01-28T23:47:08.623Z,11.17
2023-01-28T23:49:36.210Z,11.43
2023-01-28T23:52:05.478Z,10.77
2023-01-28T23:54:33.194Z,11.73
2023-01-28T23:57:00.950Z,11.63
2023-01-28T23:59:28.384Z,12.30
